sensor_id;sensor_type;location;lat;lon;timestamp;pressure;altitude;pressure_sealevel;temperature;humidity
48882;BME280;57063;51.406;-2.402;2022-07-05T00:00:31;101378.56;;;14.46;100.00
48882;BME280;57063;51.406;-2.402;2022-07-05T00:02:56;101378.13;;;14.52;100.00
48882;BME280;57063;51.406;-2.402;2022-07-05T00:05:21;101377.41;;;14.63;100.00
48882;BME280;57063;51.406;-2.402;2022-07-05T00:07:47;101385.16;;;14.66;100.00
48882;BME280;57063;51.406;-2.402;2022-07-05T00:10:12;101380.94;;;14.63;100.00
48882;BME280;57063;51.406;-2.402;2022-07-05T00:12:37;101383.72;;;14.35;100.00
48882;BME280;57063;51.406;-2.402;2022-07-05T00:15:03;101385.53;;;14.47;100.00
48882;BME280;57063;51.406;-2.402;2022-07-05T00:17:29;101383.19;;;14.55;100.00
48882;BME280;57063;51.406;-2.402;2022-07-05T00:19:54;101394.41;;;14.46;100.00
48882;BME280;57063;51.406;-2.402;2022-07-05T00:22:19;101389.78;;;14.50;100.00
48882;BME280;57063;51.406;-2.402;2022-07-05T00:24:45;101386.91;;;14.40;100.00
48882;BME280;57063;51.406;-2.402;2022-07-05T00:27:10;101384.03;;;14.43;100.00
48882;BME280;57063;51.406;-2.402;2022-07-05T00:29:36;101385.50;;;14.21;100.00
48882;BME280;57063;51.406;-2.402;2022-07-05T00:32:01;101392.63;;;14.34;100.00
48882;BME280;57063;51.406;-2.402;2022-07-05T00:34:26;101389.25;;;14.32;100.00
48882;BME280;57063;51.406;-2.402;2022-07-05T00:36:52;101397.69;;;14.37;100.00
48882;BME280;57063;51.406;-2.402;2022-07-05T00:39:17;101396.28;;;14.31;100.00
48882;BME280;57063;51.406;-2.402;2022-07-05T00:41:43;101391.88;;;14.32;100.00
48882;BME280;57063;51.406;-2.402;2022-07-05T00:44:10;101391.88;;;14.32;100.00
48882;BME280;57063;51.406;-2.402;2022-07-05T00:46:37;101393.00;;;14.27;100.00
48882;BME280;57063;51.406;-2.402;2022-07-05T00:49:03;101396.72;;;14.25;100.00
48882;BME280;57063;51.406;-2.402;2022-07-05T00:51:31;101394.59;;;14.17;100.00
48882;BME280;57063;51.406;-2.402;2022-07-05T00:53:57;101397.31;;;14.16;100.00
48882;BME280;57063;51.406;-2.402;2022-07-05T00:56:24;101395.56;;;13.49;100.00
48882;BME280;57063;51.406;-2.402;2022-07-05T00:58:50;101394.28;;;13.27;100.00
48882;BME280;57063;51.406;-2.402;2022-07-05T01:01:16;101394.34;;;13.26;100.00
48882;BME280;57063;51.406;-2.402;2022-07-05T01:03:43;101396.91;;;13.69;100.00
48882;BME280;57063;51.406;-2.402;2022-07-05T01:06:10;101394.44;;;13.93;100.00
48882;BME280;57063;51.406;-2.402;2022-07-05T01:08:41;101395.69;;;13.87;100.00
48882;BME280;57063;51.406;-2.402;2022-07-05T01:11:08;101396.84;;;13.83;100.00
48882;BME280;57063;51.406;-2.402;2022-07-05T01:13:35;101404.13;;;13.53;100.00
48882;BME280;57063;51.406;-2.402;2022-07-05T01:16:01;101394.91;;;13.73;100.00
48882;BME280;57063;51.406;-2.402;2022-07-05T01:18:27;101401.44;;;13.67;100.00
48882;BME280;57063;51.406;-2.402;2022-07-05T01:20:53;101402.72;;;13.74;100.00
48882;BME280;57063;51.406;-2.402;2022-07-05T01:23:20;101405.50;;;13.85;100.00
48882;BME280;57063;51.406;-2.402;2022-07-05T01:25:48;101399.63;;;13.40;100.00
48882;BME280;57063;51.406;-2.402;2022-07-05T01:28:15;101390.41;;;13.60;100.00
48882;BME280;57063;51.406;-2.402;2022-07-05T01:30:42;101398.41;;;13.73;100.00
48882;BME280;57063;51.406;-2.402;2022-07-05T01:33:08;101391.97;;;13.77;100.00
48882;BME280;57063;51.406;-2.402;2022-07-05T01:35:35;101391.63;;;13.69;100.00
48882;BME280;57063;51.406;-2.402;2022-07-05T01:38:01;101394.09;;;13.58;100.00
48882;BME280;57063;51.406;-2.402;2022-07-05T01:40:26;101395.00;;;13.71;100.00
48882;BME280;57063;51.406;-2.402;2022-07-05T01:42:52;101394.06;;;13.72;100.00
48882;BME280;57063;51.406;-2.402;2022-07-05T01:45:18;101385.44;;;13.56;100.00
48882;BME280;57063;51.406;-2.402;2022-07-05T01:48:06;101391.03;;;13.51;100.00
48882;BME280;57063;51.406;-2.402;2022-07-05T01:50:36;101383.03;;;13.38;100.00
48882;BME280;57063;51.406;-2.402;2022-07-05T01:53:03;101389.78;;;13.57;100.00
48882;BME280;57063;51.406;-2.402;2022-07-05T01:55:29;101390.22;;;13.63;100.00
48882;BME280;57063;51.406;-2.402;2022-07-05T01:57:54;101387.19;;;13.69;100.00
48882;BME280;57063;51.406;-2.402;2022-07-05T02:00:19;101386.34;;;13.69;100.00
48882;BME280;57063;51.406;-2.402;2022-07-05T02:02:46;101388.03;;;13.70;100.00
48882;BME280;57063;51.406;-2.402;2022-07-05T02:05:12;101390.88;;;13.67;100.00
48882;BME280;57063;51.406;-2.402;2022-07-05T02:07:49;101386.03;;;13.74;100.00
48882;BME280;57063;51.406;-2.402;2022-07-05T02:10:15;101383.72;;;13.69;100.00
48882;BME280;57063;51.406;-2.402;2022-07-05T02:12:40;101393.53;;;13.67;100.00
48882;BME280;57063;51.406;-2.402;2022-07-05T02:15:07;101395.50;;;13.63;100.00
48882;BME280;57063;51.406;-2.402;2022-07-05T02:17:32;101386.75;;;13.36;100.00
48882;BME280;57063;51.406;-2.402;2022-07-05T02:19:58;101386.00;;;13.05;100.00
48882;BME280;57063;51.406;-2.402;2022-07-05T02:22:23;101389.94;;;13.41;100.00
48882;BME280;57063;51.406;-2.402;2022-07-05T02:24:49;101394.50;;;13.52;100.00
48882;BME280;57063;51.406;-2.402;2022-07-05T02:27:14;101387.03;;;13.58;100.00
48882;BME280;57063;51.406;-2.402;2022-07-05T02:29:40;101386.00;;;13.61;100.00
48882;BME280;57063;51.406;-2.402;2022-07-05T02:32:05;101385.44;;;13.56;100.00
48882;BME280;57063;51.406;-2.402;2022-07-05T02:34:31;101378.38;;;13.56;100.00
48882;BME280;57063;51.406;-2.402;2022-07-05T02:36:56;101383.41;;;13.46;100.00
48882;BME280;57063;51.406;-2.402;2022-07-05T02:39:22;101385.69;;;13.38;100.00
48882;BME280;57063;51.406;-2.402;2022-07-05T02:41:47;101373.06;;;13.29;100.00
48882;BME280;57063;51.406;-2.402;2022-07-05T02:44:12;101377.97;;;13.21;100.00
48882;BME280;57063;51.406;-2.402;2022-07-05T02:46:38;101375.03;;;13.40;100.00
48882;BME280;57063;51.406;-2.402;2022-07-05T02:49:03;101368.56;;;13.31;100.00
48882;BME280;57063;51.406;-2.402;2022-07-05T02:51:29;101368.72;;;13.42;100.00
48882;BME280;57063;51.406;-2.402;2022-07-05T02:53:54;101363.66;;;13.39;100.00
48882;BME280;57063;51.406;-2.402;2022-07-05T02:56:19;101370.31;;;13.45;100.00
48882;BME280;57063;51.406;-2.402;2022-07-05T02:58:45;101374.47;;;13.49;100.00
48882;BME280;57063;51.406;-2.402;2022-07-05T03:01:10;101374.84;;;13.43;100.00
48882;BME280;57063;51.406;-2.402;2022-07-05T03:03:35;101373.91;;;13.44;100.00
48882;BME280;57063;51.406;-2.402;2022-07-05T03:06:01;101369.28;;;13.47;100.00
48882;BME280;57063;51.406;-2.402;2022-07-05T03:08:26;101376.22;;;13.48;100.00
48882;BME280;57063;51.406;-2.402;2022-07-05T03:10:51;101369.28;;;13.47;100.00
48882;BME280;57063;51.406;-2.402;2022-07-05T03:13:17;101369.94;;;13.51;100.00
48882;BME280;57063;51.406;-2.402;2022-07-05T03:15:42;101364.56;;;13.53;100.00
48882;BME280;57063;51.406;-2.402;2022-07-05T03:18:08;101376.59;;;13.57;100.00
48882;BME280;57063;51.406;-2.402;2022-07-05T03:20:33;101373.22;;;13.55;100.00
48882;BME280;57063;51.406;-2.402;2022-07-05T03:22:59;101371.19;;;13.58;100.00
48882;BME280;57063;51.406;-2.402;2022-07-05T03:25:24;101380.72;;;13.61;100.00
48882;BME280;57063;51.406;-2.402;2022-07-05T03:27:50;101383.78;;;13.40;100.00
48882;BME280;57063;51.406;-2.402;2022-07-05T03:30:15;101381.78;;;13.31;100.00
48882;BME280;57063;51.406;-2.402;2022-07-05T03:32:40;101391.34;;;13.32;100.00
48882;BME280;57063;51.406;-2.402;2022-07-05T03:35:06;101394.34;;;13.40;100.00
48882;BME280;57063;51.406;-2.402;2022-07-05T03:37:31;101390.97;;;13.38;100.00
48882;BME280;57063;51.406;-2.402;2022-07-05T03:39:57;101391.81;;;13.39;100.00
48882;BME280;57063;51.406;-2.402;2022-07-05T03:42:22;101393.78;;;13.49;100.00
48882;BME280;57063;51.406;-2.402;2022-07-05T03:44:47;101396.53;;;13.34;100.00
48882;BME280;57063;51.406;-2.402;2022-07-05T03:47:14;101399.13;;;13.48;100.00
48882;BME280;57063;51.406;-2.402;2022-07-05T03:49:39;101394.81;;;13.47;100.00
48882;BME280;57063;51.406;-2.402;2022-07-05T03:52:05;101392.47;;;13.42;100.00
48882;BME280;57063;51.406;-2.402;2022-07-05T03:54:30;101397.50;;;13.60;100.00
48882;BME280;57063;51.406;-2.402;2022-07-05T03:56:56;101397.84;;;13.68;100.00
48882;BME280;57063;51.406;-2.402;2022-07-05T03:59:21;101401.63;;;13.64;100.00
48882;BME280;57063;51.406;-2.402;2022-07-05T04:01:46;101401.13;;;13.44;100.00
48882;BME280;57063;51.406;-2.402;2022-07-05T04:04:12;101402.47;;;13.64;100.00
48882;BME280;57063;51.406;-2.402;2022-07-05T04:06:37;101398.50;;;13.72;100.00
48882;BME280;57063;51.406;-2.402;2022-07-05T04:09:02;101409.00;;;13.59;100.00
48882;BME280;57063;51.406;-2.402;2022-07-05T04:11:28;101402.38;;;13.66;100.00
48882;BME280;57063;51.406;-2.402;2022-07-05T04:13:53;101406.31;;;13.73;100.00
48882;BME280;57063;51.406;-2.402;2022-07-05T04:16:19;101408.00;;;13.74;100.00
48882;BME280;57063;51.406;-2.402;2022-07-05T04:18:44;101418.78;;;13.71;100.00
48882;BME280;57063;51.406;-2.402;2022-07-05T04:21:10;101415.38;;;13.69;100.00
48882;BME280;57063;51.406;-2.402;2022-07-05T04:23:35;101412.41;;;13.61;100.00
48882;BME280;57063;51.406;-2.402;2022-07-05T04:26:00;101413.56;;;13.97;100.00
48882;BME280;57063;51.406;-2.402;2022-07-05T04:28:27;101416.47;;;13.79;100.00
48882;BME280;57063;51.406;-2.402;2022-07-05T04:30:55;101420.03;;;13.78;100.00
48882;BME280;57063;51.406;-2.402;2022-07-05T04:33:21;101420.81;;;13.80;100.00
48882;BME280;57063;51.406;-2.402;2022-07-05T04:35:46;101423.88;;;13.87;100.00
48882;BME280;57063;51.406;-2.402;2022-07-05T04:38:11;101419.44;;;13.87;100.00
48882;BME280;57063;51.406;-2.402;2022-07-05T04:40:37;101421.81;;;13.92;100.00
48882;BME280;57063;51.406;-2.402;2022-07-05T04:43:02;101420.75;;;13.95;100.00
48882;BME280;57063;51.406;-2.402;2022-07-05T04:45:28;101426.78;;;13.97;100.00
48882;BME280;57063;51.406;-2.402;2022-07-05T04:47:53;101433.31;;;14.04;100.00
48882;BME280;57063;51.406;-2.402;2022-07-05T04:50:18;101431.31;;;14.07;100.00
48882;BME280;57063;51.406;-2.402;2022-07-05T04:52:43;101430.81;;;14.02;100.00
48882;BME280;57063;51.406;-2.402;2022-07-05T04:55:09;101433.22;;;13.93;100.00
48882;BME280;57063;51.406;-2.402;2022-07-05T04:57:41;101441.31;;;14.29;100.00
48882;BME280;57063;51.406;-2.402;2022-07-05T05:00:12;101434.78;;;14.48;100.00
48882;BME280;57063;51.406;-2.402;2022-07-05T05:02:38;101433.38;;;14.70;100.00
48882;BME280;57063;51.406;-2.402;2022-07-05T05:05:03;101430.47;;;14.98;100.00
48882;BME280;57063;51.406;-2.402;2022-07-05T05:07:29;101429.69;;;15.22;100.00
48882;BME280;57063;51.406;-2.402;2022-07-05T05:09:55;101439.56;;;15.57;100.00
48882;BME280;57063;51.406;-2.402;2022-07-05T05:12:20;101437.78;;;15.81;100.00
48882;BME280;57063;51.406;-2.402;2022-07-05T05:14:46;101437.16;;;16.02;100.00
48882;BME280;57063;51.406;-2.402;2022-07-05T05:17:11;101440.97;;;16.22;100.00
48882;BME280;57063;51.406;-2.402;2022-07-05T05:19:36;101443.97;;;16.29;100.00
48882;BME280;57063;51.406;-2.402;2022-07-05T05:22:02;101440.03;;;15.99;100.00
48882;BME280;57063;51.406;-2.402;2022-07-05T05:24:27;101436.69;;;16.08;100.00
48882;BME280;57063;51.406;-2.402;2022-07-05T05:26:53;101438.06;;;16.14;100.00
48882;BME280;57063;51.406;-2.402;2022-07-05T05:29:18;101440.97;;;16.22;100.00
48882;BME280;57063;51.406;-2.402;2022-07-05T05:31:46;101440.41;;;16.41;100.00
48882;BME280;57063;51.406;-2.402;2022-07-05T05:34:11;101438.25;;;16.46;100.00
48882;BME280;57063;51.406;-2.402;2022-07-05T05:36:36;101452.50;;;16.68;100.00
48882;BME280;57063;51.406;-2.402;2022-07-05T05:39:02;101468.31;;;16.80;100.00
48882;BME280;57063;51.406;-2.402;2022-07-05T05:41:27;101455.22;;;17.01;100.00
48882;BME280;57063;51.406;-2.402;2022-07-05T05:43:53;101450.88;;;17.23;100.00
48882;BME280;57063;51.406;-2.402;2022-07-05T05:46:18;101447.38;;;17.34;100.00
48882;BME280;57063;51.406;-2.402;2022-07-05T05:48:43;101449.38;;;17.53;100.00
48882;BME280;57063;51.406;-2.402;2022-07-05T05:51:09;101454.88;;;17.72;100.00
48882;BME280;57063;51.406;-2.402;2022-07-05T05:53:34;101462.34;;;17.90;100.00
48882;BME280;57063;51.406;-2.402;2022-07-05T05:55:59;101476.34;;;17.92;100.00
48882;BME280;57063;51.406;-2.402;2022-07-05T05:58:25;101471.56;;;17.86;100.00
48882;BME280;57063;51.406;-2.402;2022-07-05T06:00:51;101467.94;;;17.75;100.00
48882;BME280;57063;51.406;-2.402;2022-07-05T06:03:23;101473.25;;;17.75;100.00
48882;BME280;57063;51.406;-2.402;2022-07-05T06:05:49;101473.38;;;17.74;100.00
48882;BME280;57063;51.406;-2.402;2022-07-05T06:08:15;101477.13;;;17.60;100.00
48882;BME280;57063;51.406;-2.402;2022-07-05T06:10:41;101476.53;;;17.56;100.00
48882;BME280;57063;51.406;-2.402;2022-07-05T06:13:09;101479.50;;;17.74;100.00
48882;BME280;57063;51.406;-2.402;2022-07-05T06:15:36;101476.69;;;17.98;100.00
48882;BME280;57063;51.406;-2.402;2022-07-05T06:18:02;101480.13;;;18.42;100.00
48882;BME280;57063;51.406;-2.402;2022-07-05T06:20:30;101484.34;;;18.66;100.00
48882;BME280;57063;51.406;-2.402;2022-07-05T06:22:56;101487.31;;;18.73;100.00
48882;BME280;57063;51.406;-2.402;2022-07-05T06:25:22;101489.34;;;18.80;100.00
48882;BME280;57063;51.406;-2.402;2022-07-05T06:27:49;101476.75;;;18.82;100.00
48882;BME280;57063;51.406;-2.402;2022-07-05T06:30:17;101482.94;;;19.14;99.26
48882;BME280;57063;51.406;-2.402;2022-07-05T06:32:47;101485.16;;;19.49;96.29
48882;BME280;57063;51.406;-2.402;2022-07-05T06:35:13;101482.09;;;19.64;97.42
48882;BME280;57063;51.406;-2.402;2022-07-05T06:37:48;101477.03;;;20.87;88.06
48882;BME280;57063;51.406;-2.402;2022-07-05T06:40:18;101477.09;;;21.70;81.84
48882;BME280;57063;51.406;-2.402;2022-07-05T06:42:44;101479.16;;;23.86;68.71
48882;BME280;57063;51.406;-2.402;2022-07-05T06:45:10;101479.34;;;27.28;51.02
48882;BME280;57063;51.406;-2.402;2022-07-05T06:47:35;101464.63;;;30.12;42.87
48882;BME280;57063;51.406;-2.402;2022-07-05T06:50:01;101465.81;;;31.79;36.66
48882;BME280;57063;51.406;-2.402;2022-07-05T06:52:31;101463.56;;;33.26;34.31
48882;BME280;57063;51.406;-2.402;2022-07-05T06:55:00;101464.69;;;34.32;32.54
48882;BME280;57063;51.406;-2.402;2022-07-05T06:57:26;101468.06;;;35.85;29.87
48882;BME280;57063;51.406;-2.402;2022-07-05T06:59:52;101474.63;;;36.01;29.23
48882;BME280;57063;51.406;-2.402;2022-07-05T07:02:18;101471.75;;;36.24;28.51
48882;BME280;57063;51.406;-2.402;2022-07-05T07:04:44;101464.28;;;36.76;27.77
48882;BME280;57063;51.406;-2.402;2022-07-05T07:07:10;101485.38;;;37.46;26.54
48882;BME280;57063;51.406;-2.402;2022-07-05T07:10:00;101485.78;;;35.25;28.34
48882;BME280;57063;51.406;-2.402;2022-07-05T07:12:26;101488.53;;;35.25;29.03
48882;BME280;57063;51.406;-2.402;2022-07-05T07:14:52;101480.69;;;33.45;32.19
48882;BME280;57063;51.406;-2.402;2022-07-05T07:17:17;101482.31;;;33.15;32.41
48882;BME280;57063;51.406;-2.402;2022-07-05T07:19:42;101483.69;;;35.03;30.23
48882;BME280;57063;51.406;-2.402;2022-07-05T07:22:08;101481.34;;;37.27;27.31
48882;BME280;57063;51.406;-2.402;2022-07-05T07:24:33;101475.25;;;37.47;26.27
48882;BME280;57063;51.406;-2.402;2022-07-05T07:26:59;101476.25;;;38.75;25.21
48882;BME280;57063;51.406;-2.402;2022-07-05T07:29:32;101480.69;;;40.97;22.67
48882;BME280;57063;51.406;-2.402;2022-07-05T07:31:59;101484.38;;;42.06;21.55
48882;BME280;57063;51.406;-2.402;2022-07-05T07:34:25;101493.16;;;41.39;21.67
48882;BME280;57063;51.406;-2.402;2022-07-05T07:36:51;101492.41;;;42.31;21.18
48882;BME280;57063;51.406;-2.402;2022-07-05T07:39:17;101498.09;;;41.42;21.84
48882;BME280;57063;51.406;-2.402;2022-07-05T07:41:43;101502.75;;;42.20;20.78
48882;BME280;57063;51.406;-2.402;2022-07-05T07:44:08;101498.72;;;43.80;20.15
48882;BME280;57063;51.406;-2.402;2022-07-05T07:46:33;101505.91;;;41.25;21.83
48882;BME280;57063;51.406;-2.402;2022-07-05T07:48:59;101512.16;;;41.40;22.18
48882;BME280;57063;51.406;-2.402;2022-07-05T07:51:24;101501.00;;;43.21;19.33
48882;BME280;57063;51.406;-2.402;2022-07-05T07:53:49;101506.63;;;42.44;20.90
48882;BME280;57063;51.406;-2.402;2022-07-05T07:56:15;101502.41;;;42.75;20.04
48882;BME280;57063;51.406;-2.402;2022-07-05T07:58:40;101483.50;;;41.41;20.84
48882;BME280;57063;51.406;-2.402;2022-07-05T08:01:06;101495.66;;;42.09;20.31
48882;BME280;57063;51.406;-2.402;2022-07-05T08:03:36;101506.16;;;41.73;21.23
48882;BME280;57063;51.406;-2.402;2022-07-05T08:06:01;101506.56;;;41.90;21.02
48882;BME280;57063;51.406;-2.402;2022-07-05T08:08:27;101518.06;;;41.68;20.36
48882;BME280;57063;51.406;-2.402;2022-07-05T08:10:52;101514.13;;;40.59;21.62
48882;BME280;57063;51.406;-2.402;2022-07-05T08:13:17;101513.63;;;42.01;20.26
48882;BME280;57063;51.406;-2.402;2022-07-05T08:15:43;101504.47;;;40.62;21.62
48882;BME280;57063;51.406;-2.402;2022-07-05T08:18:08;101502.63;;;39.70;22.45
48882;BME280;57063;51.406;-2.402;2022-07-05T08:20:52;101522.25;;;32.78;29.88
48882;BME280;57063;51.406;-2.402;2022-07-05T08:23:38;101517.63;;;32.60;30.05
48882;BME280;57063;51.406;-2.402;2022-07-05T08:26:03;101517.53;;;30.54;32.42
48882;BME280;57063;51.406;-2.402;2022-07-05T08:28:28;101524.97;;;29.79;34.90
48882;BME280;57063;51.406;-2.402;2022-07-05T08:30:54;101534.78;;;28.75;35.55
48882;BME280;57063;51.406;-2.402;2022-07-05T08:33:19;101532.41;;;28.59;36.39
48882;BME280;57063;51.406;-2.402;2022-07-05T08:35:44;101538.03;;;26.36;40.02
48882;BME280;57063;51.406;-2.402;2022-07-05T08:38:10;101525.13;;;26.69;39.95
48882;BME280;57063;51.406;-2.402;2022-07-05T08:40:39;101533.63;;;28.35;38.58
48882;BME280;57063;51.406;-2.402;2022-07-05T08:43:07;101531.84;;;28.20;37.59
48882;BME280;57063;51.406;-2.402;2022-07-05T08:45:33;101531.59;;;29.21;35.54
48882;BME280;57063;51.406;-2.402;2022-07-05T08:47:59;101524.13;;;29.85;35.02
48882;BME280;57063;51.406;-2.402;2022-07-05T08:50:26;101532.53;;;30.57;33.79
48882;BME280;57063;51.406;-2.402;2022-07-05T08:52:52;101533.53;;;31.68;32.18
48882;BME280;57063;51.406;-2.402;2022-07-05T08:55:18;101527.09;;;31.62;32.99
48882;BME280;57063;51.406;-2.402;2022-07-05T08:57:43;101533.97;;;32.28;32.26
48882;BME280;57063;51.406;-2.402;2022-07-05T09:00:09;101532.53;;;30.57;34.60
48882;BME280;57063;51.406;-2.402;2022-07-05T09:02:35;101531.69;;;30.23;34.76
48882;BME280;57063;51.406;-2.402;2022-07-05T09:05:01;101527.44;;;29.74;35.53
48882;BME280;57063;51.406;-2.402;2022-07-05T09:07:29;101527.81;;;29.71;37.12
48882;BME280;57063;51.406;-2.402;2022-07-05T09:09:57;101529.38;;;30.00;37.06
48882;BME280;57063;51.406;-2.402;2022-07-05T09:12:25;101521.44;;;29.85;35.55
48882;BME280;57063;51.406;-2.402;2022-07-05T09:14:51;101516.34;;;31.29;34.51
48882;BME280;57063;51.406;-2.402;2022-07-05T09:17:16;101523.66;;;29.68;36.81
48882;BME280;57063;51.406;-2.402;2022-07-05T09:19:42;101538.00;;;28.57;38.15
48882;BME280;57063;51.406;-2.402;2022-07-05T09:22:07;101535.91;;;29.16;37.48
48882;BME280;57063;51.406;-2.402;2022-07-05T09:24:42;101535.81;;;29.31;36.54
48882;BME280;57063;51.406;-2.402;2022-07-05T09:27:08;101538.19;;;29.12;37.96
48882;BME280;57063;51.406;-2.402;2022-07-05T09:29:34;101539.53;;;28.45;39.12
48882;BME280;57063;51.406;-2.402;2022-07-05T09:31:59;101543.97;;;28.09;39.24
48882;BME280;57063;51.406;-2.402;2022-07-05T09:34:25;101545.25;;;27.92;40.73
48882;BME280;57063;51.406;-2.402;2022-07-05T09:39:19;101545.25;;;27.56;40.54
48882;BME280;57063;51.406;-2.402;2022-07-05T09:44:37;101550.66;;;28.14;39.88
48882;BME280;57063;51.406;-2.402;2022-07-05T09:47:07;101544.34;;;27.70;40.72
48882;BME280;57063;51.406;-2.402;2022-07-05T09:49:35;101556.72;;;28.37;39.29
48882;BME280;57063;51.406;-2.402;2022-07-05T09:52:01;101558.19;;;27.97;40.24
48882;BME280;57063;51.406;-2.402;2022-07-05T09:54:26;101561.38;;;27.70;41.22
48882;BME280;57063;51.406;-2.402;2022-07-05T09:56:51;101555.09;;;27.19;41.42
48882;BME280;57063;51.406;-2.402;2022-07-05T09:59:18;101556.84;;;27.56;42.40
48882;BME280;57063;51.406;-2.402;2022-07-05T10:01:44;101555.84;;;28.30;40.21
48882;BME280;57063;51.406;-2.402;2022-07-05T10:04:10;101565.91;;;28.93;38.43
48882;BME280;57063;51.406;-2.402;2022-07-05T10:06:35;101567.69;;;28.79;38.69
48882;BME280;57063;51.406;-2.402;2022-07-05T10:09:01;101560.03;;;27.96;39.21
48882;BME280;57063;51.406;-2.402;2022-07-05T10:11:27;101558.69;;;27.70;42.13
48882;BME280;57063;51.406;-2.402;2022-07-05T10:13:53;101568.38;;;27.20;42.28
48882;BME280;57063;51.406;-2.402;2022-07-05T10:16:20;101573.91;;;27.42;42.04
48882;BME280;57063;51.406;-2.402;2022-07-05T10:18:47;101571.84;;;27.44;40.85
48882;BME280;57063;51.406;-2.402;2022-07-05T10:21:16;101570.84;;;26.62;42.81
48882;BME280;57063;51.406;-2.402;2022-07-05T10:23:48;101572.81;;;25.83;45.15
48882;BME280;57063;51.406;-2.402;2022-07-05T10:26:15;101566.09;;;26.41;44.19
48882;BME280;57063;51.406;-2.402;2022-07-05T10:28:45;101560.84;;;26.86;43.93
48882;BME280;57063;51.406;-2.402;2022-07-05T10:31:12;101561.16;;;27.06;42.37
48882;BME280;57063;51.406;-2.402;2022-07-05T10:33:38;101563.84;;;27.50;42.34
48882;BME280;57063;51.406;-2.402;2022-07-05T10:36:04;101559.81;;;29.47;40.29
48882;BME280;57063;51.406;-2.402;2022-07-05T10:38:35;101555.06;;;30.44;38.64
48882;BME280;57063;51.406;-2.402;2022-07-05T10:41:03;101539.59;;;30.04;37.64
48882;BME280;57063;51.406;-2.402;2022-07-05T10:43:30;101542.50;;;31.16;36.11
48882;BME280;57063;51.406;-2.402;2022-07-05T10:45:56;101553.16;;;30.18;35.96
48882;BME280;57063;51.406;-2.402;2022-07-05T10:48:26;101553.97;;;30.05;36.96
48882;BME280;57063;51.406;-2.402;2022-07-05T10:50:57;101564.84;;;29.57;37.80
48882;BME280;57063;51.406;-2.402;2022-07-05T10:54:00;101563.88;;;29.30;37.67
48882;BME280;57063;51.406;-2.402;2022-07-05T10:56:14;101558.81;;;30.90;35.18
48882;BME280;57063;51.406;-2.402;2022-07-05T10:58:44;101565.38;;;29.87;37.62
48882;BME280;57063;51.406;-2.402;2022-07-05T11:03:41;101555.09;;;30.57;37.08
48882;BME280;57063;51.406;-2.402;2022-07-05T11:06:08;101568.56;;;29.56;37.82
48882;BME280;57063;51.406;-2.402;2022-07-05T11:11:32;101566.47;;;30.06;36.64
48882;BME280;57063;51.406;-2.402;2022-07-05T11:13:59;101560.69;;;32.63;32.25
48882;BME280;57063;51.406;-2.402;2022-07-05T11:16:33;101564.28;;;33.74;30.51
48882;BME280;57063;51.406;-2.402;2022-07-05T11:19:16;101568.53;;;32.96;32.41
48882;BME280;57063;51.406;-2.402;2022-07-05T11:22:01;101575.69;;;30.78;36.20
48882;BME280;57063;51.406;-2.402;2022-07-05T11:24:30;101574.03;;;32.39;33.00
48882;BME280;57063;51.406;-2.402;2022-07-05T11:27:00;101578.31;;;31.52;33.70
48882;BME280;57063;51.406;-2.402;2022-07-05T11:32:12;101577.16;;;30.81;35.08
48882;BME280;57063;51.406;-2.402;2022-07-05T11:34:39;101569.22;;;31.06;34.11
48882;BME280;57063;51.406;-2.402;2022-07-05T11:39:43;101576.34;;;30.94;36.15
48882;BME280;57063;51.406;-2.402;2022-07-05T11:42:09;101566.31;;;31.01;36.11
48882;BME280;57063;51.406;-2.402;2022-07-05T11:44:35;101571.56;;;31.61;34.00
48882;BME280;57063;51.406;-2.402;2022-07-05T11:47:01;101574.97;;;32.27;33.37
48882;BME280;57063;51.406;-2.402;2022-07-05T11:49:26;101568.31;;;32.98;34.32
48882;BME280;57063;51.406;-2.402;2022-07-05T11:51:55;101568.84;;;30.56;35.88
48882;BME280;57063;51.406;-2.402;2022-07-05T11:54:29;101572.72;;;31.20;35.22
48882;BME280;57063;51.406;-2.402;2022-07-05T11:56:55;101580.63;;;29.53;37.53
48882;BME280;57063;51.406;-2.402;2022-07-05T11:59:22;101575.25;;;28.40;40.54
48882;BME280;57063;51.406;-2.402;2022-07-05T12:01:48;101571.75;;;28.46;41.28
48882;BME280;57063;51.406;-2.402;2022-07-05T12:04:25;101575.81;;;30.03;39.81
48882;BME280;57063;51.406;-2.402;2022-07-05T12:06:51;101575.38;;;29.87;38.93
48882;BME280;57063;51.406;-2.402;2022-07-05T12:09:23;101566.69;;;30.18;38.28
48882;BME280;57063;51.406;-2.402;2022-07-05T12:11:52;101576.44;;;29.92;38.01
48882;BME280;57063;51.406;-2.402;2022-07-05T12:14:37;101574.88;;;29.21;39.61
48882;BME280;57063;51.406;-2.402;2022-07-05T12:17:18;101575.44;;;28.17;41.71
48882;BME280;57063;51.406;-2.402;2022-07-05T12:19:45;101577.81;;;28.27;42.62
48882;BME280;57063;51.406;-2.402;2022-07-05T12:22:10;101568.09;;;28.33;41.59
48882;BME280;57063;51.406;-2.402;2022-07-05T12:24:36;101575.34;;;28.75;40.64
48882;BME280;57063;51.406;-2.402;2022-07-05T12:27:02;101570.72;;;28.47;42.18
48882;BME280;57063;51.406;-2.402;2022-07-05T12:29:28;101568.41;;;27.65;43.68
48882;BME280;57063;51.406;-2.402;2022-07-05T12:32:01;101566.09;;;27.83;44.23
48882;BME280;57063;51.406;-2.402;2022-07-05T12:34:27;101564.44;;;28.40;42.19
48882;BME280;57063;51.406;-2.402;2022-07-05T12:36:53;101566.81;;;29.35;41.04
48882;BME280;57063;51.406;-2.402;2022-07-05T12:39:18;101570.28;;;28.01;42.83
48882;BME280;57063;51.406;-2.402;2022-07-05T12:41:44;101562.59;;;27.68;44.00
48882;BME280;57063;51.406;-2.402;2022-07-05T12:44:09;101566.44;;;28.53;43.71
48882;BME280;57063;51.406;-2.402;2022-07-05T12:46:39;101559.81;;;29.12;41.12
48882;BME280;57063;51.406;-2.402;2022-07-05T12:49:05;101566.88;;;28.57;42.15